createdAt,value
2022-10-18T00:00:27.010Z,74.67
2022-10-18T00:03:14.022Z,74.87
2022-10-18T00:05:40.811Z,74.87
2022-10-18T00:08:07.763Z,74.82
2022-10-18T00:10:34.570Z,74.66
2022-10-18T00:13:01.758Z,74.50
2022-10-18T00:15:28.555Z,74.41
2022-10-18T00:17:55.506Z,74.13
2022-10-18T00:20:22.380Z,73.91
2022-10-18T00:22:49.386Z,73.99
2022-10-18T00:25:17.677Z,73.85
2022-10-18T00:27:44.660Z,73.78
2022-10-18T00:30:11.795Z,73.83
2022-10-18T00:32:40.017Z,73.41
2022-10-18T00:35:08.433Z,73.38
2022-10-18T00:37:35.835Z,73.67
2022-10-18T00:40:02.610Z,73.62
2022-10-18T00:42:32.842Z,73.53
2022-10-18T00:45:20.831Z,73.66
2022-10-18T00:47:53.644Z,73.68
2022-10-18T00:50:22.161Z,74.01
2022-10-18T00:52:54.125Z,73.89
2022-10-18T00:55:21.218Z,73.98
2022-10-18T00:57:50.019Z,73.78
2022-10-18T01:00:17.941Z,73.94
2022-10-18T01:02:46.615Z,73.66
2022-10-18T01:05:18.362Z,73.83
2022-10-18T01:08:16.268Z,74.02
2022-10-18T01:11:00.246Z,74.18
2022-10-18T01:14:04.343Z,74.32
2022-10-18T01:16:34.138Z,73.99
2022-10-18T01:19:26.812Z,73.81
2022-10-18T01:22:02.884Z,73.87
2022-10-18T01:24:45.548Z,74.02
2022-10-18T01:27:35.196Z,73.67
2022-10-18T01:30:29.611Z,73.55
2022-10-18T01:33:05.493Z,74.08
2022-10-18T01:35:39.710Z,73.84
2022-10-18T01:38:11.892Z,73.74
2022-10-18T01:40:41.883Z,73.58
2022-10-18T01:43:10.788Z,74.19
2022-10-18T01:45:38.065Z,74.16
2022-10-18T01:48:05.510Z,73.73
2022-10-18T01:50:35.293Z,73.44
2022-10-18T01:53:02.437Z,73.00
2022-10-18T01:55:46.376Z,73.11
2022-10-18T01:58:51.530Z,73.44
2022-10-18T02:01:36.866Z,73.44
2022-10-18T02:04:33.020Z,73.76
2022-10-18T02:07:12.719Z,73.27
2022-10-18T02:09:46.730Z,73.46
2022-10-18T02:12:16.384Z,72.84
2022-10-18T02:14:44.356Z,72.78
2022-10-18T02:17:13.193Z,72.36
2022-10-18T02:19:54.023Z,72.34
2022-10-18T02:22:26.321Z,72.14
2022-10-18T02:24:57.078Z,72.00
2022-10-18T02:27:24.706Z,71.67
2022-10-18T02:29:52.808Z,71.53
2022-10-18T02:32:52.925Z,71.25
2022-10-18T02:35:29.198Z,71.91
2022-10-18T02:37:58.853Z,71.29
2022-10-18T02:40:26.025Z,71.19
2022-10-18T02:42:57.808Z,71.03
2022-10-18T02:45:26.388Z,71.01
2022-10-18T02:47:53.477Z,71.29
2022-10-18T02:50:20.224Z,71.54
2022-10-18T02:52:47.166Z,71.53
2022-10-18T02:55:13.926Z,71.27
2022-10-18T02:57:41.074Z,71.00
2022-10-18T03:00:08.425Z,70.87
2022-10-18T03:02:35.533Z,70.69
2022-10-18T03:05:02.376Z,70.85
2022-10-18T03:07:29.478Z,70.14
2022-10-18T03:09:56.447Z,70.18
2022-10-18T03:12:23.480Z,69.89
2022-10-18T03:14:50.242Z,70.04
2022-10-18T03:17:17.290Z,70.20
2022-10-18T03:19:44.092Z,70.07
2022-10-18T03:22:11.055Z,69.91
2022-10-18T03:24:37.836Z,69.79
2022-10-18T03:27:04.870Z,70.19
2022-10-18T03:29:31.675Z,69.76
2022-10-18T03:31:58.622Z,69.64
2022-10-18T03:34:25.433Z,69.93
2022-10-18T03:36:52.430Z,69.70
2022-10-18T03:39:19.247Z,70.11
2022-10-18T03:41:46.297Z,70.18
2022-10-18T03:44:13.041Z,69.84
2022-10-18T03:46:40.031Z,70.12
2022-10-18T03:49:06.790Z,69.94
2022-10-18T03:51:33.798Z,70.08
2022-10-18T03:54:00.687Z,70.23
2022-10-18T03:56:27.645Z,70.01
2022-10-18T03:58:54.479Z,69.90
2022-10-18T04:01:21.485Z,70.04
2022-10-18T04:03:48.324Z,70.06
2022-10-18T04:06:15.272Z,70.55
2022-10-18T04:08:42.052Z,70.80
2022-10-18T04:11:09.971Z,70.74
2022-10-18T04:13:37.144Z,70.78
2022-10-18T04:16:04.633Z,70.72
2022-10-18T04:18:31.422Z,70.93
2022-10-18T04:20:58.951Z,70.60
2022-10-18T04:23:25.700Z,70.65
2022-10-18T04:25:52.782Z,71.06
2022-10-18T04:28:19.522Z,70.95
2022-10-18T04:30:51.350Z,70.94
2022-10-18T04:33:18.582Z,70.76
2022-10-18T04:35:50.638Z,71.12
2022-10-18T04:38:17.487Z,71.03
2022-10-18T04:40:44.493Z,70.89
2022-10-18T04:43:11.561Z,70.97
2022-10-18T04:45:38.583Z,70.87
2022-10-18T04:48:05.670Z,70.49
2022-10-18T04:50:32.667Z,70.07
2022-10-18T04:52:59.420Z,70.21
2022-10-18T04:55:26.445Z,69.71
2022-10-18T04:57:53.746Z,69.29
2022-10-18T05:00:21.057Z,69.83
2022-10-18T05:02:47.866Z,69.81
2022-10-18T05:05:15.101Z,69.70
2022-10-18T05:07:41.879Z,69.28
2022-10-18T05:10:10.127Z,68.99
2022-10-18T05:12:36.914Z,69.08
2022-10-18T05:15:04.519Z,68.12
2022-10-18T05:17:31.310Z,67.30
2022-10-18T05:19:58.907Z,65.53
2022-10-18T05:22:25.632Z,64.86
2022-10-18T05:24:52.611Z,63.23
2022-10-18T05:27:19.368Z,62.90
2022-10-18T05:29:46.453Z,60.59
2022-10-18T05:32:13.261Z,58.34
2022-10-18T05:34:40.367Z,57.45
2022-10-18T05:37:07.388Z,57.33
2022-10-18T05:39:34.402Z,57.67
2022-10-18T05:42:02.460Z,56.38
2022-10-18T05:44:29.524Z,56.68
2022-10-18T05:46:56.321Z,53.52
2022-10-18T05:49:23.546Z,53.84
2022-10-18T05:51:50.421Z,50.84
2022-10-18T05:54:17.915Z,50.72
2022-10-18T05:56:44.776Z,48.46
2022-10-18T05:59:12.213Z,48.70
2022-10-18T06:01:40.519Z,46.87
2022-10-18T06:04:08.099Z,47.33
2022-10-18T06:06:34.942Z,44.76
2022-10-18T06:09:03.530Z,44.96
2022-10-18T06:11:31.168Z,46.03
2022-10-18T06:13:58.415Z,46.02
2022-10-18T06:16:31.256Z,45.83
2022-10-18T06:19:00.184Z,46.02
2022-10-18T06:21:27.218Z,46.34
2022-10-18T06:23:58.835Z,47.67
2022-10-18T06:26:28.253Z,46.94
2022-10-18T06:28:55.411Z,46.82
2022-10-18T06:31:22.483Z,47.74
2022-10-18T06:33:49.999Z,48.81
2022-10-18T06:36:24.136Z,48.98
2022-10-18T06:38:51.351Z,47.52
2022-10-18T06:41:19.404Z,48.67
2022-10-18T06:43:50.470Z,48.91
2022-10-18T06:46:17.454Z,49.26
2022-10-18T06:48:44.577Z,47.53
2022-10-18T06:51:11.922Z,47.57
2022-10-18T06:53:43.907Z,47.47
2022-10-18T06:56:20.239Z,47.10
2022-10-18T06:58:47.450Z,46.52
2022-10-18T07:01:17.159Z,45.41
2022-10-18T07:03:46.054Z,46.39
2022-10-18T07:06:14.910Z,46.03
2022-10-18T07:08:42.256Z,45.80
2022-10-18T07:11:15.266Z,44.79
2022-10-18T07:13:42.319Z,44.26
2022-10-18T07:16:14.141Z,43.37
2022-10-18T07:18:48.385Z,44.14
2022-10-18T07:21:17.286Z,44.23
2022-10-18T07:23:46.263Z,44.50
2022-10-18T07:26:23.541Z,44.08
2022-10-18T07:28:57.950Z,43.35
2022-10-18T07:31:25.440Z,42.13
2022-10-18T07:33:53.411Z,42.84
2022-10-18T07:36:22.169Z,43.10
2022-10-18T07:38:49.703Z,42.13
2022-10-18T07:41:16.494Z,41.83
2022-10-18T07:56:46.023Z,40.44
2022-10-18T07:59:13.078Z,42.22
2022-10-18T08:01:40.056Z,43.24
2022-10-18T08:04:08.437Z,42.47
2022-10-18T08:06:36.661Z,40.36
2022-10-18T08:09:04.151Z,40.54
2022-10-18T08:11:31.233Z,40.28
2022-10-18T08:13:58.459Z,40.76
2022-10-18T08:16:28.823Z,38.37
2022-10-18T08:18:58.196Z,38.12
2022-10-18T08:21:26.432Z,38.02
2022-10-18T08:23:53.986Z,39.27
2022-10-18T08:26:22.830Z,39.21
2022-10-18T08:28:54.382Z,39.29
2022-10-18T08:31:36.757Z,39.00
2022-10-18T08:34:03.742Z,39.11
2022-10-18T08:36:30.549Z,38.21
2022-10-18T08:38:57.556Z,38.53
2022-10-18T08:41:37.721Z,38.28
2022-10-18T08:44:13.572Z,37.63
2022-10-18T08:46:45.538Z,37.90
2022-10-18T08:49:38.366Z,36.61
2022-10-18T08:52:28.668Z,37.60
2022-10-18T08:55:00.229Z,38.00
2022-10-18T08:57:27.083Z,37.60
2022-10-18T08:59:54.141Z,38.17
2022-10-18T09:02:46.933Z,37.78
2022-10-18T09:05:31.701Z,37.25
2022-10-18T09:08:01.395Z,36.70
2022-10-18T09:10:49.705Z,35.66
2022-10-18T09:13:28.711Z,34.95
2022-10-18T09:15:59.649Z,35.59
2022-10-18T09:18:43.020Z,35.04
2022-10-18T09:21:24.358Z,36.50
2022-10-18T09:24:33.140Z,35.14
2022-10-18T09:27:22.362Z,34.60
2022-10-18T09:29:54.799Z,35.87
2022-10-18T09:32:52.773Z,36.43
2022-10-18T09:35:30.668Z,36.86
2022-10-18T09:38:04.720Z,35.25
2022-10-18T09:40:38.970Z,35.77
2022-10-18T09:43:12.193Z,35.86
2022-10-18T09:45:44.858Z,35.64
2022-10-18T09:48:34.782Z,34.71
2022-10-18T09:51:08.886Z,34.70
2022-10-18T09:53:57.018Z,34.13
2022-10-18T09:56:35.569Z,33.31
2022-10-18T09:59:04.782Z,34.19
2022-10-18T10:01:33.334Z,33.92
2022-10-18T10:04:00.446Z,34.26
2022-10-18T10:06:32.354Z,34.79
2022-10-18T10:09:06.842Z,35.63
2022-10-18T10:11:40.423Z,33.67
2022-10-18T10:14:09.418Z,34.12
2022-10-18T10:16:44.980Z,33.51
2022-10-18T10:19:32.254Z,33.15
2022-10-18T10:22:05.236Z,31.79
2022-10-18T10:24:48.797Z,32.59
2022-10-18T10:27:24.722Z,32.28
2022-10-18T10:29:56.734Z,31.35
2022-10-18T10:34:55.011Z,28.62
2022-10-18T10:37:24.248Z,30.22
2022-10-18T10:40:19.219Z,30.81
2022-10-18T10:43:04.283Z,31.36
2022-10-18T10:46:14.084Z,32.61
2022-10-18T10:49:21.778Z,31.28
2022-10-18T10:51:53.684Z,30.71
2022-10-18T10:54:35.969Z,30.61
2022-10-18T10:57:12.658Z,30.71
2022-10-18T10:59:44.454Z,30.04
2022-10-18T11:02:15.269Z,31.59
2022-10-18T11:04:42.722Z,32.72
2022-10-18T11:07:09.658Z,32.75
2022-10-18T11:09:40.485Z,33.06
2022-10-18T11:12:38.209Z,32.19
2022-10-18T11:15:11.970Z,32.59
2022-10-18T11:17:59.266Z,32.75
2022-10-18T11:20:29.975Z,33.17
2022-10-18T11:22:56.877Z,32.85
2022-10-18T11:25:27.761Z,33.25
2022-10-18T11:28:01.682Z,32.30
2022-10-18T11:30:55.393Z,31.42
2022-10-18T11:33:56.389Z,31.62
2022-10-18T11:36:38.590Z,32.27
2022-10-18T11:39:24.606Z,32.00
2022-10-18T11:41:55.242Z,31.85
2022-10-18T11:44:25.277Z,30.71
2022-10-18T11:47:03.738Z,30.62
2022-10-18T11:49:54.688Z,30.85
2022-10-18T11:52:39.551Z,31.18
2022-10-18T11:55:59.078Z,32.17
2022-10-18T11:59:11.150Z,32.86
2022-10-18T12:01:45.468Z,33.13
2022-10-18T12:04:18.177Z,32.32
2022-10-18T12:06:49.310Z,32.54
2022-10-18T12:09:28.620Z,32.63
2022-10-18T12:12:03.286Z,32.26
2022-10-18T12:14:36.995Z,32.51
2022-10-18T12:17:40.678Z,32.57
2022-10-18T12:20:01.549Z,32.42
2022-10-18T12:22:42.339Z,31.68
2022-10-18T12:25:13.367Z,31.66
2022-10-18T12:27:58.133Z,30.64
2022-10-18T12:30:42.362Z,32.44
2022-10-18T12:33:27.840Z,32.58
2022-10-18T12:36:21.317Z,33.09
2022-10-18T12:38:53.593Z,33.35
2022-10-18T12:41:34.054Z,33.64
2022-10-18T12:44:24.270Z,34.48
2022-10-18T12:46:56.642Z,34.10
2022-10-18T12:49:34.322Z,33.98
2022-10-18T12:52:04.967Z,33.46
2022-10-18T12:54:35.122Z,34.22
2022-10-18T12:57:04.739Z,32.80
2022-10-18T12:59:31.882Z,33.87
2022-10-18T13:02:20.669Z,34.28
2022-10-18T13:04:48.829Z,33.83
2022-10-18T13:07:43.249Z,33.55
2022-10-18T13:10:10.184Z,34.70
2022-10-18T13:12:58.117Z,34.50
2022-10-18T13:15:42.384Z,34.33
2022-10-18T13:18:41.055Z,34.94
2022-10-18T13:21:07.903Z,35.36
2022-10-18T13:23:53.605Z,35.87
2022-10-18T13:26:20.507Z,35.71
2022-10-18T13:28:59.344Z,35.67
2022-10-18T13:31:47.568Z,35.94
2022-10-18T13:34:33.144Z,36.20
2022-10-18T13:37:01.765Z,36.22
2022-10-18T13:39:29.951Z,36.84
2022-10-18T13:41:57.996Z,35.65
2022-10-18T13:44:31.985Z,34.65
2022-10-18T13:46:58.940Z,35.35
2022-10-18T13:49:49.641Z,36.16
2022-10-18T13:52:28.641Z,36.82
2022-10-18T13:55:26.478Z,37.04
2022-10-18T13:58:15.445Z,38.04
2022-10-18T14:01:14.412Z,39.13
2022-10-18T14:03:58.707Z,39.52
2022-10-18T14:06:33.403Z,40.43
2022-10-18T14:09:40.346Z,40.63
2022-10-18T14:12:34.019Z,42.11
2022-10-18T14:15:17.446Z,43.22
2022-10-18T14:18:02.132Z,44.15
2022-10-18T14:20:48.963Z,44.28
2022-10-18T14:23:25.890Z,45.24
2022-10-18T14:26:05.713Z,45.43
2022-10-18T14:28:54.956Z,46.14
2022-10-18T14:31:19.847Z,46.33
2022-10-18T14:33:57.038Z,46.69
2022-10-18T14:36:27.687Z,47.19
2022-10-18T14:38:54.371Z,47.58
2022-10-18T14:41:47.440Z,47.92
2022-10-18T14:44:14.803Z,48.37
2022-10-18T14:46:43.731Z,48.70
2022-10-18T14:49:12.639Z,49.04
2022-10-18T14:51:41.913Z,48.89
2022-10-18T14:54:15.870Z,48.95
2022-10-18T14:56:43.965Z,49.40
2022-10-18T14:59:20.455Z,49.51
2022-10-18T15:01:55.305Z,49.96
2022-10-18T15:04:27.779Z,50.31
2022-10-18T15:06:56.054Z,50.73
2022-10-18T15:09:24.196Z,50.79
2022-10-18T15:11:54.795Z,50.77
2022-10-18T15:14:22.289Z,51.63
2022-10-18T15:16:59.538Z,51.83
2022-10-18T15:19:34.281Z,52.25
2022-10-18T15:22:31.353Z,52.32
2022-10-18T15:25:15.063Z,52.46
2022-10-18T15:27:50.722Z,52.59
2022-10-18T15:30:23.054Z,53.11
2022-10-18T15:32:56.259Z,53.43
2022-10-18T15:35:32.405Z,53.28
2022-10-18T15:38:13.622Z,53.32
2022-10-18T15:40:42.215Z,53.64
2022-10-18T15:43:24.322Z,54.20
2022-10-18T15:46:00.134Z,54.43
2022-10-18T15:48:35.734Z,54.52
2022-10-18T15:51:05.181Z,54.65
2022-10-18T15:53:43.160Z,55.00
2022-10-18T15:56:34.486Z,54.82
2022-10-18T15:59:20.701Z,55.24
2022-10-18T16:01:47.680Z,55.55
2022-10-18T16:04:28.159Z,55.83
2022-10-18T16:06:56.373Z,56.84
2022-10-18T16:09:25.320Z,57.22
2022-10-18T16:11:56.606Z,57.82
2022-10-18T16:14:25.346Z,57.55
2022-10-18T16:16:55.083Z,57.66
2022-10-18T16:19:23.107Z,57.53
2022-10-18T16:21:51.788Z,57.53
2022-10-18T16:24:18.816Z,57.57
2022-10-18T16:26:46.120Z,57.56
2022-10-18T16:29:21.676Z,57.78
2022-10-18T16:31:50.856Z,58.31
2022-10-18T16:34:18.126Z,59.04
2022-10-18T16:36:44.963Z,59.69
2022-10-18T16:39:17.455Z,60.56
2022-10-18T16:41:44.863Z,61.55
2022-10-18T16:44:12.306Z,62.17
2022-10-18T16:46:39.809Z,62.91
2022-10-18T16:49:07.508Z,63.22
2022-10-18T16:51:34.304Z,63.61
2022-10-18T16:54:01.550Z,63.75
2022-10-18T16:56:31.275Z,64.21
2022-10-18T16:58:59.192Z,64.43
2022-10-18T17:01:26.867Z,64.98
2022-10-18T17:03:55.311Z,65.15
2022-10-18T17:06:27.657Z,65.24
2022-10-18T17:08:56.531Z,65.53
2022-10-18T17:11:25.018Z,65.54
2022-10-18T17:13:52.044Z,65.89
2022-10-18T17:19:04.839Z,65.82
2022-10-18T17:21:33.565Z,65.94
2022-10-18T17:24:05.897Z,66.42
2022-10-18T17:26:34.067Z,66.98
2022-10-18T17:29:04.720Z,67.52
2022-10-18T17:31:32.353Z,67.57
2022-10-18T17:34:01.798Z,68.07
2022-10-18T17:36:30.724Z,68.81
2022-10-18T17:38:58.398Z,69.67
2022-10-18T17:41:25.882Z,69.79
2022-10-18T17:43:52.854Z,69.84
2022-10-18T17:46:19.731Z,70.18
2022-10-18T17:48:47.207Z,70.54
2022-10-18T17:51:16.551Z,70.58
2022-10-18T17:53:44.206Z,70.95
2022-10-18T17:56:12.436Z,71.39
2022-10-18T17:58:39.927Z,71.63
2022-10-18T18:01:10.406Z,72.09
2022-10-18T18:03:37.593Z,72.51
2022-10-18T18:06:16.788Z,73.11
2022-10-18T18:08:45.173Z,73.10
2022-10-18T18:11:12.384Z,73.77
2022-10-18T18:13:39.588Z,73.64
2022-10-18T18:16:20.573Z,74.08
2022-10-18T18:18:50.313Z,74.21
2022-10-18T18:21:17.566Z,73.94
2022-10-18T18:23:45.184Z,74.45
2022-10-18T18:26:12.274Z,74.99
2022-10-18T18:28:39.338Z,74.70
2022-10-18T18:31:11.370Z,75.32
2022-10-18T18:33:38.524Z,75.59
2022-10-18T18:36:06.831Z,76.10
2022-10-18T18:38:36.378Z,75.81
2022-10-18T18:41:03.922Z,76.57
2022-10-18T18:43:30.982Z,77.17
2022-10-18T18:45:58.071Z,77.38
2022-10-18T18:48:26.969Z,77.21
2022-10-18T18:50:54.187Z,77.37
2022-10-18T18:53:21.221Z,77.75
2022-10-18T18:55:50.734Z,77.79
2022-10-18T18:58:19.036Z,77.68
2022-10-18T19:00:46.048Z,77.61
2022-10-18T19:03:13.124Z,77.47
2022-10-18T19:05:39.943Z,77.62
2022-10-18T19:08:07.000Z,77.86
2022-10-18T19:10:33.827Z,77.77
2022-10-18T19:13:00.816Z,78.01
2022-10-18T19:15:27.619Z,78.08
2022-10-18T19:17:56.248Z,78.79
2022-10-18T19:20:23.178Z,78.76
2022-10-18T19:22:50.183Z,79.11
2022-10-18T19:25:17.058Z,79.73
2022-10-18T19:27:44.107Z,80.21
2022-10-18T19:30:12.434Z,80.48
2022-10-18T19:32:39.409Z,80.76
2022-10-18T19:35:06.368Z,80.76
2022-10-18T19:37:33.561Z,80.92
2022-10-18T19:40:00.888Z,81.29
2022-10-18T19:42:31.182Z,81.66
2022-10-18T19:44:58.477Z,81.84
2022-10-18T19:47:25.476Z,82.22
2022-10-18T19:49:53.833Z,82.05
2022-10-18T19:52:20.824Z,82.46
2022-10-18T19:54:49.049Z,82.43
2022-10-18T19:57:16.035Z,82.52
2022-10-18T19:59:42.831Z,83.13
2022-10-18T20:02:15.190Z,82.86
2022-10-18T20:04:42.087Z,82.94
2022-10-18T20:07:09.344Z,83.35
2022-10-18T20:09:36.478Z,83.51
2022-10-18T20:12:03.833Z,83.37
2022-10-18T20:14:30.558Z,83.60
2022-10-18T20:16:57.561Z,84.22
2022-10-18T20:19:24.310Z,84.47
2022-10-18T20:21:51.270Z,84.26
2022-10-18T20:24:18.007Z,83.82
2022-10-18T20:26:45.272Z,84.14
2022-10-18T20:29:12.174Z,83.63
2022-10-18T20:31:39.549Z,83.28
2022-10-18T20:34:10.550Z,82.78
2022-10-18T20:36:38.207Z,82.30
2022-10-18T20:39:06.061Z,82.14
2022-10-18T20:41:35.519Z,81.68
2022-10-18T20:44:07.060Z,81.18
2022-10-18T20:46:36.077Z,80.99
2022-10-18T20:49:04.056Z,80.39
2022-10-18T20:51:35.450Z,80.35
2022-10-18T20:56:34.620Z,80.39
2022-10-18T20:59:01.824Z,80.03
2022-10-18T21:01:34.084Z,80.26
2022-10-18T21:04:03.639Z,80.48
2022-10-18T21:06:32.994Z,80.31
2022-10-18T21:09:08.658Z,80.02
2022-10-18T21:11:37.974Z,79.84
2022-10-18T21:14:06.174Z,79.91
2022-10-18T21:16:35.382Z,79.66
2022-10-18T21:19:08.113Z,79.66
2022-10-18T21:21:35.800Z,79.50
2022-10-18T21:24:06.954Z,79.45
2022-10-18T21:26:35.763Z,79.22
2022-10-18T21:29:04.524Z,78.82
2022-10-18T21:31:37.824Z,78.74
2022-10-18T21:34:17.161Z,79.04
2022-10-18T21:36:46.182Z,79.19
2022-10-18T21:39:15.689Z,79.28
2022-10-18T21:41:43.565Z,79.17
2022-10-18T21:44:11.757Z,79.58
2022-10-18T21:46:40.232Z,79.32
2022-10-18T21:49:07.842Z,79.19
2022-10-18T21:51:35.065Z,79.07
2022-10-18T21:54:01.821Z,79.28
2022-10-18T21:56:34.214Z,79.47
2022-10-18T21:59:01.873Z,80.05
2022-10-18T22:01:39.477Z,79.78
2022-10-18T22:04:17.096Z,80.75
2022-10-18T22:06:44.124Z,80.70
2022-10-18T22:09:10.910Z,80.85
2022-10-18T22:11:41.762Z,80.60
2022-10-18T22:14:08.956Z,80.78
2022-10-18T22:16:36.295Z,81.37
2022-10-18T22:19:05.194Z,81.75
2022-10-18T22:21:32.877Z,81.89
2022-10-18T22:24:00.471Z,82.61
2022-10-18T22:26:29.984Z,82.65
2022-10-18T22:29:01.044Z,82.97
2022-10-18T22:31:31.242Z,83.62
2022-10-18T22:34:01.017Z,83.64
2022-10-18T22:36:28.151Z,83.80
2022-10-18T22:38:55.216Z,84.19
2022-10-18T22:41:22.377Z,85.06
2022-10-18T22:43:53.352Z,84.84
2022-10-18T22:46:21.068Z,85.49
2022-10-18T22:48:48.531Z,85.92
2022-10-18T22:51:15.885Z,86.98
2022-10-18T22:53:42.739Z,89.45
2022-10-18T22:56:13.560Z,91.66
2022-10-18T22:58:40.345Z,95.23
2022-10-18T23:01:10.037Z,96.97
2022-10-18T23:03:37.628Z,100.00
2022-10-18T23:06:06.488Z,100.00
2022-10-18T23:08:33.479Z,100.00
2022-10-18T23:11:00.455Z,100.00
2022-10-18T23:13:28.003Z,100.00
2022-10-18T23:16:04.530Z,100.00
2022-10-18T23:18:33.239Z,100.00
2022-10-18T23:21:05.907Z,100.00
2022-10-18T23:23:35.593Z,100.00
2022-10-18T23:26:05.292Z,100.00
2022-10-18T23:28:40.804Z,100.00
2022-10-18T23:31:13.560Z,100.00
2022-10-18T23:33:41.567Z,100.00
2022-10-18T23:36:09.445Z,100.00
2022-10-18T23:38:37.347Z,100.00
2022-10-18T23:41:08.865Z,100.00
2022-10-18T23:43:36.064Z,100.00
2022-10-18T23:46:03.311Z,100.00
2022-10-18T23:48:30.593Z,100.00
2022-10-18T23:50:58.341Z,100.00
2022-10-18T23:53:25.138Z,100.00
2022-10-18T23:55:59.379Z,100.00
2022-10-18T23:58:27.380Z,100.00
